sensor_id;sensor_type;location;lat;lon;timestamp;temperature;humidity
16347;DHT22;8283;48.504;13.734;2023-02-12T00:01:41;8.60;60.20
16347;DHT22;8283;48.504;13.734;2023-02-12T00:04:26;8.60;60.10
16347;DHT22;8283;48.504;13.734;2023-02-12T00:07:10;8.60;60.10
16347;DHT22;8283;48.504;13.734;2023-02-12T00:09:55;8.60;60.00
16347;DHT22;8283;48.504;13.734;2023-02-12T00:12:39;8.90;60.30
16347;DHT22;8283;48.504;13.734;2023-02-12T00:15:24;8.50;60.00
16347;DHT22;8283;48.504;13.734;2023-02-12T00:18:08;8.60;60.10
16347;DHT22;8283;48.504;13.734;2023-02-12T00:20:53;8.50;60.80
16347;DHT22;8283;48.504;13.734;2023-02-12T00:23:38;8.50;60.10
16347;DHT22;8283;48.504;13.734;2023-02-12T00:26:24;8.50;60.10
16347;DHT22;8283;48.504;13.734;2023-02-12T00:29:09;8.50;60.20
16347;DHT22;8283;48.504;13.734;2023-02-12T00:31:54;9.50;60.80
16347;DHT22;8283;48.504;13.734;2023-02-12T00:34:38;8.50;60.20
16347;DHT22;8283;48.504;13.734;2023-02-12T00:37:23;8.50;60.50
16347;DHT22;8283;48.504;13.734;2023-02-12T00:40:08;8.50;61.40
16347;DHT22;8283;48.504;13.734;2023-02-12T00:42:52;8.50;60.50
16347;DHT22;8283;48.504;13.734;2023-02-12T00:45:37;8.50;60.40
16347;DHT22;8283;48.504;13.734;2023-02-12T00:48:22;8.50;60.50
16347;DHT22;8283;48.504;13.734;2023-02-12T00:51:07;8.50;60.50
16347;DHT22;8283;48.504;13.734;2023-02-12T00:53:51;8.50;60.60
16347;DHT22;8283;48.504;13.734;2023-02-12T00:56:36;8.50;60.80
16347;DHT22;8283;48.504;13.734;2023-02-12T00:59:22;8.50;60.70
16347;DHT22;8283;48.504;13.734;2023-02-12T01:02:06;8.50;60.70
16347;DHT22;8283;48.504;13.734;2023-02-12T01:04:51;8.50;60.70
16347;DHT22;8283;48.504;13.734;2023-02-12T01:07:36;8.50;60.70
16347;DHT22;8283;48.504;13.734;2023-02-12T01:10:21;8.50;60.90
16347;DHT22;8283;48.504;13.734;2023-02-12T01:13:06;8.50;61.00
16347;DHT22;8283;48.504;13.734;2023-02-12T01:16:13;8.50;60.90
16347;DHT22;8283;48.504;13.734;2023-02-12T01:18:57;8.50;61.60
16347;DHT22;8283;48.504;13.734;2023-02-12T01:21:42;8.50;60.80
16347;DHT22;8283;48.504;13.734;2023-02-12T01:24:26;8.40;60.80
16347;DHT22;8283;48.504;13.734;2023-02-12T01:27:12;8.50;61.00
16347;DHT22;8283;48.504;13.734;2023-02-12T01:29:57;8.50;61.20
16347;DHT22;8283;48.504;13.734;2023-02-12T01:32:41;8.40;61.00
16347;DHT22;8283;48.504;13.734;2023-02-12T01:35:28;8.40;61.20
16347;DHT22;8283;48.504;13.734;2023-02-12T01:38:13;8.40;61.30
16347;DHT22;8283;48.504;13.734;2023-02-12T01:41:11;8.40;61.70
16347;DHT22;8283;48.504;13.734;2023-02-12T01:44:08;8.40;61.60
16347;DHT22;8283;48.504;13.734;2023-02-12T01:47:04;8.40;61.70
16347;DHT22;8283;48.504;13.734;2023-02-12T01:49:49;8.40;62.30
16347;DHT22;8283;48.504;13.734;2023-02-12T01:52:35;8.40;61.50
16347;DHT22;8283;48.504;13.734;2023-02-12T01:55:20;8.40;61.60
16347;DHT22;8283;48.504;13.734;2023-02-12T01:58:06;8.40;61.40
16347;DHT22;8283;48.504;13.734;2023-02-12T02:00:52;8.50;61.50
16347;DHT22;8283;48.504;13.734;2023-02-12T02:03:38;8.50;61.40
16347;DHT22;8283;48.504;13.734;2023-02-12T02:06:30;8.50;61.50
16347;DHT22;8283;48.504;13.734;2023-02-12T02:09:18;8.50;61.50
16347;DHT22;8283;48.504;13.734;2023-02-12T02:12:04;8.60;61.50
16347;DHT22;8283;48.504;13.734;2023-02-12T02:15:08;8.50;61.40
16347;DHT22;8283;48.504;13.734;2023-02-12T02:18:29;8.50;61.50
16347;DHT22;8283;48.504;13.734;2023-02-12T02:21:27;8.50;62.60
16347;DHT22;8283;48.504;13.734;2023-02-12T02:24:19;8.50;61.60
16347;DHT22;8283;48.504;13.734;2023-02-12T02:27:17;8.50;61.20
16347;DHT22;8283;48.504;13.734;2023-02-12T02:33:21;8.50;62.20
16347;DHT22;8283;48.504;13.734;2023-02-12T02:36:26;8.50;61.90
16347;DHT22;8283;48.504;13.734;2023-02-12T02:39:42;8.50;61.90
16347;DHT22;8283;48.504;13.734;2023-02-12T02:42:48;8.50;62.20
16347;DHT22;8283;48.504;13.734;2023-02-12T02:45:42;8.50;62.60
16347;DHT22;8283;48.504;13.734;2023-02-12T02:48:34;8.50;61.70
16347;DHT22;8283;48.504;13.734;2023-02-12T02:51:28;8.50;61.70
16347;DHT22;8283;48.504;13.734;2023-02-12T02:54:20;8.50;61.70
16347;DHT22;8283;48.504;13.734;2023-02-12T02:57:29;8.50;61.90
16347;DHT22;8283;48.504;13.734;2023-02-12T03:00:19;8.50;62.90
16347;DHT22;8283;48.504;13.734;2023-02-12T03:03:43;8.50;61.90
16347;DHT22;8283;48.504;13.734;2023-02-12T03:06:32;8.50;62.80
16347;DHT22;8283;48.504;13.734;2023-02-12T03:09:28;8.40;62.10
16347;DHT22;8283;48.504;13.734;2023-02-12T03:12:43;8.50;62.30
16347;DHT22;8283;48.504;13.734;2023-02-12T03:15:46;8.50;63.10
16347;DHT22;8283;48.504;13.734;2023-02-12T03:18:51;8.50;62.80
16347;DHT22;8283;48.504;13.734;2023-02-12T03:27:49;8.50;62.00
16347;DHT22;8283;48.504;13.734;2023-02-12T03:37:11;8.50;63.40
16347;DHT22;8283;48.504;13.734;2023-02-12T03:46:21;8.50;62.50
16347;DHT22;8283;48.504;13.734;2023-02-12T03:49:39;8.50;62.30
16347;DHT22;8283;48.504;13.734;2023-02-12T03:52:28;8.50;63.70
16347;DHT22;8283;48.504;13.734;2023-02-12T03:55:13;8.50;62.30
16347;DHT22;8283;48.504;13.734;2023-02-12T03:58:00;8.50;62.20
16347;DHT22;8283;48.504;13.734;2023-02-12T04:00:46;8.30;62.40
16347;DHT22;8283;48.504;13.734;2023-02-12T04:03:31;8.50;62.30
16347;DHT22;8283;48.504;13.734;2023-02-12T04:06:26;8.50;62.40
16347;DHT22;8283;48.504;13.734;2023-02-12T04:09:12;8.50;63.60
16347;DHT22;8283;48.504;13.734;2023-02-12T04:15:18;8.50;63.50
16347;DHT22;8283;48.504;13.734;2023-02-12T04:18:19;8.40;63.60
16347;DHT22;8283;48.504;13.734;2023-02-12T04:27:20;8.40;63.30
16347;DHT22;8283;48.504;13.734;2023-02-12T04:30:18;8.40;62.80
16347;DHT22;8283;48.504;13.734;2023-02-12T04:33:06;8.40;63.50
16347;DHT22;8283;48.504;13.734;2023-02-12T04:35:54;8.40;63.40
16347;DHT22;8283;48.504;13.734;2023-02-12T04:38:47;8.40;63.20
16347;DHT22;8283;48.504;13.734;2023-02-12T04:41:34;8.40;64.00
16347;DHT22;8283;48.504;13.734;2023-02-12T04:44:25;8.30;63.20
16347;DHT22;8283;48.504;13.734;2023-02-12T04:47:12;8.40;63.70
16347;DHT22;8283;48.504;13.734;2023-02-12T04:49:57;8.30;63.20
16347;DHT22;8283;48.504;13.734;2023-02-12T04:52:41;8.30;63.10
16347;DHT22;8283;48.504;13.734;2023-02-12T04:55:25;8.40;63.10
16347;DHT22;8283;48.504;13.734;2023-02-12T04:58:10;8.40;63.20
16347;DHT22;8283;48.504;13.734;2023-02-12T05:00:58;8.40;63.40
16347;DHT22;8283;48.504;13.734;2023-02-12T05:03:42;8.40;63.60
16347;DHT22;8283;48.504;13.734;2023-02-12T05:06:27;8.40;63.40
16347;DHT22;8283;48.504;13.734;2023-02-12T05:09:16;8.40;63.40
16347;DHT22;8283;48.504;13.734;2023-02-12T05:12:01;8.40;63.60
16347;DHT22;8283;48.504;13.734;2023-02-12T05:14:46;8.50;63.40
16347;DHT22;8283;48.504;13.734;2023-02-12T05:17:30;8.40;63.60
16347;DHT22;8283;48.504;13.734;2023-02-12T05:20:14;8.50;63.70
16347;DHT22;8283;48.504;13.734;2023-02-12T05:22:58;8.50;63.60
16347;DHT22;8283;48.504;13.734;2023-02-12T05:25:43;8.50;63.50
16347;DHT22;8283;48.504;13.734;2023-02-12T05:28:29;8.50;63.60
16347;DHT22;8283;48.504;13.734;2023-02-12T05:31:16;8.50;63.70
16347;DHT22;8283;48.504;13.734;2023-02-12T05:34:01;8.50;63.70
16347;DHT22;8283;48.504;13.734;2023-02-12T05:36:45;8.50;63.60
16347;DHT22;8283;48.504;13.734;2023-02-12T05:39:30;7.90;63.20
16347;DHT22;8283;48.504;13.734;2023-02-12T05:42:14;8.50;63.60
16347;DHT22;8283;48.504;13.734;2023-02-12T05:44:59;8.50;63.60
16347;DHT22;8283;48.504;13.734;2023-02-12T05:47:43;8.50;63.60
16347;DHT22;8283;48.504;13.734;2023-02-12T05:50:28;8.50;63.70
16347;DHT22;8283;48.504;13.734;2023-02-12T05:53:17;8.50;63.70
16347;DHT22;8283;48.504;13.734;2023-02-12T05:56:23;8.50;63.90
16347;DHT22;8283;48.504;13.734;2023-02-12T05:59:12;8.80;66.00
16347;DHT22;8283;48.504;13.734;2023-02-12T06:01:57;8.50;64.40
16347;DHT22;8283;48.504;13.734;2023-02-12T06:04:42;8.40;63.90
16347;DHT22;8283;48.504;13.734;2023-02-12T06:07:27;8.40;63.90
16347;DHT22;8283;48.504;13.734;2023-02-12T06:10:11;8.40;63.90
16347;DHT22;8283;48.504;13.734;2023-02-12T06:12:56;8.40;64.10
16347;DHT22;8283;48.504;13.734;2023-02-12T06:15:40;8.50;64.20
16347;DHT22;8283;48.504;13.734;2023-02-12T06:18:25;8.40;64.10
16347;DHT22;8283;48.504;13.734;2023-02-12T06:21:11;8.50;64.30
16347;DHT22;8283;48.504;13.734;2023-02-12T06:23:55;8.50;64.70
16347;DHT22;8283;48.504;13.734;2023-02-12T06:26:40;8.40;64.30
16347;DHT22;8283;48.504;13.734;2023-02-12T06:29:24;8.50;64.20
16347;DHT22;8283;48.504;13.734;2023-02-12T06:32:10;8.50;64.30
16347;DHT22;8283;48.504;13.734;2023-02-12T06:34:56;8.50;64.60
16347;DHT22;8283;48.504;13.734;2023-02-12T06:37:41;8.50;64.60
16347;DHT22;8283;48.504;13.734;2023-02-12T06:40:26;8.50;64.70
16347;DHT22;8283;48.504;13.734;2023-02-12T06:43:10;8.50;64.60
16347;DHT22;8283;48.504;13.734;2023-02-12T06:45:59;8.50;64.60
16347;DHT22;8283;48.504;13.734;2023-02-12T06:48:45;8.50;65.10
16347;DHT22;8283;48.504;13.734;2023-02-12T06:51:30;8.40;64.90
16347;DHT22;8283;48.504;13.734;2023-02-12T06:54:16;8.50;64.70
16347;DHT22;8283;48.504;13.734;2023-02-12T06:57:01;8.50;64.70
16347;DHT22;8283;48.504;13.734;2023-02-12T06:59:45;8.50;65.00
16347;DHT22;8283;48.504;13.734;2023-02-12T07:02:30;8.50;64.80
16347;DHT22;8283;48.504;13.734;2023-02-12T07:05:15;8.50;64.70
16347;DHT22;8283;48.504;13.734;2023-02-12T07:07:59;8.50;64.70
16347;DHT22;8283;48.504;13.734;2023-02-12T07:10:47;8.50;64.90
16347;DHT22;8283;48.504;13.734;2023-02-12T07:13:32;8.60;65.20
16347;DHT22;8283;48.504;13.734;2023-02-12T07:16:18;8.60;65.10
16347;DHT22;8283;48.504;13.734;2023-02-12T07:19:02;8.60;65.40
16347;DHT22;8283;48.504;13.734;2023-02-12T07:21:47;8.50;65.10
16347;DHT22;8283;48.504;13.734;2023-02-12T07:24:33;8.50;65.50
16347;DHT22;8283;48.504;13.734;2023-02-12T07:27:18;8.50;65.90
16347;DHT22;8283;48.504;13.734;2023-02-12T07:30:04;8.50;65.60
16347;DHT22;8283;48.504;13.734;2023-02-12T07:32:49;8.50;65.40
16347;DHT22;8283;48.504;13.734;2023-02-12T07:35:34;8.50;65.30
16347;DHT22;8283;48.504;13.734;2023-02-12T07:38:18;8.50;65.30
16347;DHT22;8283;48.504;13.734;2023-02-12T07:41:21;8.50;65.30
16347;DHT22;8283;48.504;13.734;2023-02-12T07:44:11;8.60;67.20
16347;DHT22;8283;48.504;13.734;2023-02-12T07:46:55;8.60;66.20
16347;DHT22;8283;48.504;13.734;2023-02-12T07:49:40;8.60;65.60
16347;DHT22;8283;48.504;13.734;2023-02-12T07:52:24;8.60;65.60
16347;DHT22;8283;48.504;13.734;2023-02-12T07:55:09;8.60;65.60
16347;DHT22;8283;48.504;13.734;2023-02-12T07:57:54;9.20;66.00
16347;DHT22;8283;48.504;13.734;2023-02-12T08:00:39;8.60;65.60
16347;DHT22;8283;48.504;13.734;2023-02-12T08:03:23;8.60;65.80
16347;DHT22;8283;48.504;13.734;2023-02-12T08:06:10;8.70;65.70
16347;DHT22;8283;48.504;13.734;2023-02-12T08:08:56;8.70;65.80
16347;DHT22;8283;48.504;13.734;2023-02-12T08:11:42;9.00;65.90
16347;DHT22;8283;48.504;13.734;2023-02-12T08:14:27;8.70;66.00
16347;DHT22;8283;48.504;13.734;2023-02-12T08:17:12;8.70;66.10
16347;DHT22;8283;48.504;13.734;2023-02-12T08:19:57;8.70;66.00
16347;DHT22;8283;48.504;13.734;2023-02-12T08:22:41;9.30;66.30
16347;DHT22;8283;48.504;13.734;2023-02-12T08:25:25;8.70;66.20
16347;DHT22;8283;48.504;13.734;2023-02-12T08:28:09;8.80;66.10
16347;DHT22;8283;48.504;13.734;2023-02-12T08:30:59;8.80;66.10
16347;DHT22;8283;48.504;13.734;2023-02-12T08:33:45;8.80;66.50
16347;DHT22;8283;48.504;13.734;2023-02-12T08:36:37;8.90;66.30
16347;DHT22;8283;48.504;13.734;2023-02-12T08:39:24;8.90;66.50
16347;DHT22;8283;48.504;13.734;2023-02-12T08:42:09;9.00;66.50
16347;DHT22;8283;48.504;13.734;2023-02-12T08:44:55;9.00;66.50
16347;DHT22;8283;48.504;13.734;2023-02-12T08:47:39;8.10;66.20
16347;DHT22;8283;48.504;13.734;2023-02-12T08:50:24;9.20;66.90
16347;DHT22;8283;48.504;13.734;2023-02-12T08:53:09;9.20;67.20
16347;DHT22;8283;48.504;13.734;2023-02-12T08:55:54;9.20;66.90
16347;DHT22;8283;48.504;13.734;2023-02-12T08:58:40;9.20;66.90
16347;DHT22;8283;48.504;13.734;2023-02-12T09:01:28;9.30;67.00
16347;DHT22;8283;48.504;13.734;2023-02-12T09:04:20;9.40;67.10
16347;DHT22;8283;48.504;13.734;2023-02-12T09:07:05;9.40;67.20
16347;DHT22;8283;48.504;13.734;2023-02-12T09:09:50;9.50;67.20
16347;DHT22;8283;48.504;13.734;2023-02-12T09:12:35;9.50;67.30
16347;DHT22;8283;48.504;13.734;2023-02-12T09:15:19;9.60;67.30
16347;DHT22;8283;48.504;13.734;2023-02-12T09:18:04;9.60;67.40
16347;DHT22;8283;48.504;13.734;2023-02-12T09:20:49;9.70;67.30
16347;DHT22;8283;48.504;13.734;2023-02-12T09:23:34;9.70;67.20
16347;DHT22;8283;48.504;13.734;2023-02-12T09:26:22;9.70;67.10
16347;DHT22;8283;48.504;13.734;2023-02-12T09:29:06;9.70;67.10
16347;DHT22;8283;48.504;13.734;2023-02-12T09:31:51;9.80;67.10
16347;DHT22;8283;48.504;13.734;2023-02-12T09:34:35;10.50;67.50
16347;DHT22;8283;48.504;13.734;2023-02-12T09:37:20;10.50;67.50
16347;DHT22;8283;48.504;13.734;2023-02-12T09:40:06;10.10;67.10
16347;DHT22;8283;48.504;13.734;2023-02-12T09:46:20;10.20;68.20
16347;DHT22;8283;48.504;13.734;2023-02-12T09:52:02;10.40;67.60
16347;DHT22;8283;48.504;13.734;2023-02-12T09:54:48;10.50;67.20
16347;DHT22;8283;48.504;13.734;2023-02-12T09:57:37;10.60;67.20
16347;DHT22;8283;48.504;13.734;2023-02-12T10:00:27;10.70;67.50
16347;DHT22;8283;48.504;13.734;2023-02-12T10:03:15;10.80;67.70
16347;DHT22;8283;48.504;13.734;2023-02-12T10:06:07;11.40;67.60
16347;DHT22;8283;48.504;13.734;2023-02-12T10:12:12;11.00;68.30
16347;DHT22;8283;48.504;13.734;2023-02-12T10:21:32;11.20;67.90
16347;DHT22;8283;48.504;13.734;2023-02-12T10:27:17;11.40;67.80
16347;DHT22;8283;48.504;13.734;2023-02-12T10:33:10;11.50;67.90
16347;DHT22;8283;48.504;13.734;2023-02-12T10:39:37;11.70;68.00
16347;DHT22;8283;48.504;13.734;2023-02-12T10:42:37;11.80;68.00
16347;DHT22;8283;48.504;13.734;2023-02-12T10:45:42;11.90;67.80
16347;DHT22;8283;48.504;13.734;2023-02-12T10:48:32;12.40;68.30
16347;DHT22;8283;48.504;13.734;2023-02-12T10:54:40;12.20;67.50
16347;DHT22;8283;48.504;13.734;2023-02-12T10:57:28;12.30;67.50
16347;DHT22;8283;48.504;13.734;2023-02-12T11:00:33;12.30;67.40
16347;DHT22;8283;48.504;13.734;2023-02-12T11:03:21;12.40;67.50
16347;DHT22;8283;48.504;13.734;2023-02-12T11:06:19;12.50;67.50
16347;DHT22;8283;48.504;13.734;2023-02-12T11:09:04;12.60;67.50
16347;DHT22;8283;48.504;13.734;2023-02-12T11:11:49;13.80;68.10
16347;DHT22;8283;48.504;13.734;2023-02-12T11:14:33;12.90;67.60
16347;DHT22;8283;48.504;13.734;2023-02-12T11:17:28;13.10;67.60
16347;DHT22;8283;48.504;13.734;2023-02-12T11:23:04;13.20;67.20
16347;DHT22;8283;48.504;13.734;2023-02-12T11:31:38;13.50;66.70
16347;DHT22;8283;48.504;13.734;2023-02-12T11:34:24;13.60;67.00
16347;DHT22;8283;48.504;13.734;2023-02-12T11:37:17;13.70;67.00
16347;DHT22;8283;48.504;13.734;2023-02-12T11:40:05;13.90;67.10
16347;DHT22;8283;48.504;13.734;2023-02-12T11:42:53;14.00;67.40
16347;DHT22;8283;48.504;13.734;2023-02-12T11:45:45;14.20;67.50
16347;DHT22;8283;48.504;13.734;2023-02-12T11:48:38;14.30;67.00
16347;DHT22;8283;48.504;13.734;2023-02-12T11:51:28;14.60;67.20
16347;DHT22;8283;48.504;13.734;2023-02-12T11:54:20;14.60;65.80
16347;DHT22;8283;48.504;13.734;2023-02-12T11:57:05;14.70;65.10
16347;DHT22;8283;48.504;13.734;2023-02-12T11:59:50;14.70;65.00
16347;DHT22;8283;48.504;13.734;2023-02-12T12:02:37;14.70;64.90
16347;DHT22;8283;48.504;13.734;2023-02-12T12:05:27;14.60;64.90
16347;DHT22;8283;48.504;13.734;2023-02-12T12:08:30;14.60;64.90
16347;DHT22;8283;48.504;13.734;2023-02-12T12:14:53;14.60;65.40
16347;DHT22;8283;48.504;13.734;2023-02-12T12:18:03;14.60;63.20
16347;DHT22;8283;48.504;13.734;2023-02-12T12:24:25;14.80;65.00
16347;DHT22;8283;48.504;13.734;2023-02-12T12:27:22;14.90;65.80
16347;DHT22;8283;48.504;13.734;2023-02-12T12:40:38;15.80;65.40
16347;DHT22;8283;48.504;13.734;2023-02-12T12:43:44;16.10;64.70
16347;DHT22;8283;48.504;13.734;2023-02-12T12:46:33;16.30;65.00
16347;DHT22;8283;48.504;13.734;2023-02-12T12:58:35;16.90;62.70
16347;DHT22;8283;48.504;13.734;2023-02-12T13:01:27;16.80;61.10
16347;DHT22;8283;48.504;13.734;2023-02-12T13:08:00;16.80;62.20
16347;DHT22;8283;48.504;13.734;2023-02-12T13:13:39;16.60;61.30
16347;DHT22;8283;48.504;13.734;2023-02-12T13:17:16;16.50;60.60
16347;DHT22;8283;48.504;13.734;2023-02-12T13:20:11;16.30;59.30
16347;DHT22;8283;48.504;13.734;2023-02-12T13:28:54;15.80;60.90
16347;DHT22;8283;48.504;13.734;2023-02-12T13:32:06;16.00;61.50
16347;DHT22;8283;48.504;13.734;2023-02-12T13:34:56;15.60;61.10
16347;DHT22;8283;48.504;13.734;2023-02-12T13:37:43;15.50;61.30
16347;DHT22;8283;48.504;13.734;2023-02-12T13:40:29;15.50;61.50
16347;DHT22;8283;48.504;13.734;2023-02-12T13:46:38;15.40;60.60
16347;DHT22;8283;48.504;13.734;2023-02-12T13:49:53;15.10;61.10
16347;DHT22;8283;48.504;13.734;2023-02-12T14:02:27;15.40;61.50
16347;DHT22;8283;48.504;13.734;2023-02-12T14:05:27;15.50;62.10
16347;DHT22;8283;48.504;13.734;2023-02-12T14:08:33;15.60;62.00
16347;DHT22;8283;48.504;13.734;2023-02-12T14:11:21;15.80;61.60
16347;DHT22;8283;48.504;13.734;2023-02-12T14:14:06;15.80;61.80
16347;DHT22;8283;48.504;13.734;2023-02-12T14:16:52;15.90;61.80
16347;DHT22;8283;48.504;13.734;2023-02-12T14:19:37;15.90;61.30
16347;DHT22;8283;48.504;13.734;2023-02-12T14:28:22;15.70;60.00
16347;DHT22;8283;48.504;13.734;2023-02-12T14:31:30;15.60;61.00
16347;DHT22;8283;48.504;13.734;2023-02-12T14:37:15;15.90;61.10
16347;DHT22;8283;48.504;13.734;2023-02-12T14:49:35;15.90;60.90
16347;DHT22;8283;48.504;13.734;2023-02-12T14:52:29;15.30;60.00
16347;DHT22;8283;48.504;13.734;2023-02-12T14:55:26;15.30;60.60
16347;DHT22;8283;48.504;13.734;2023-02-12T14:58:19;15.20;60.40
16347;DHT22;8283;48.504;13.734;2023-02-12T15:01:04;15.50;60.60
16347;DHT22;8283;48.504;13.734;2023-02-12T15:03:53;15.00;60.40
16347;DHT22;8283;48.504;13.734;2023-02-12T15:06:50;14.90;60.40
16347;DHT22;8283;48.504;13.734;2023-02-12T15:09:43;15.00;60.50
16347;DHT22;8283;48.504;13.734;2023-02-12T15:12:41;14.80;60.50
16347;DHT22;8283;48.504;13.734;2023-02-12T15:15:38;14.80;60.50
16347;DHT22;8283;48.504;13.734;2023-02-12T15:18:25;14.50;60.50
16347;DHT22;8283;48.504;13.734;2023-02-12T15:26:59;14.20;60.80
16347;DHT22;8283;48.504;13.734;2023-02-12T15:29:46;14.10;60.90
16347;DHT22;8283;48.504;13.734;2023-02-12T15:32:33;14.00;60.90
16347;DHT22;8283;48.504;13.734;2023-02-12T15:38:08;13.90;61.00
16347;DHT22;8283;48.504;13.734;2023-02-12T15:41:02;13.80;61.00
16347;DHT22;8283;48.504;13.734;2023-02-12T15:43:46;13.80;61.00
16347;DHT22;8283;48.504;13.734;2023-02-12T15:46:31;13.70;61.00
16347;DHT22;8283;48.504;13.734;2023-02-12T15:49:19;13.70;61.00
16347;DHT22;8283;48.504;13.734;2023-02-12T15:52:09;13.90;61.30
16347;DHT22;8283;48.504;13.734;2023-02-12T15:54:58;13.50;61.10
16347;DHT22;8283;48.504;13.734;2023-02-12T15:57:50;13.50;61.10
16347;DHT22;8283;48.504;13.734;2023-02-12T16:00:45;13.40;61.20
16347;DHT22;8283;48.504;13.734;2023-02-12T16:03:39;14.00;61.70
16347;DHT22;8283;48.504;13.734;2023-02-12T16:06:24;13.40;61.30
16347;DHT22;8283;48.504;13.734;2023-02-12T16:09:20;13.40;61.50
16347;DHT22;8283;48.504;13.734;2023-02-12T16:12:13;13.30;61.00
16347;DHT22;8283;48.504;13.734;2023-02-12T16:14:59;13.40;60.90
16347;DHT22;8283;48.504;13.734;2023-02-12T16:17:46;13.30;60.70
16347;DHT22;8283;48.504;13.734;2023-02-12T16:20:30;13.60;60.90
16347;DHT22;8283;48.504;13.734;2023-02-12T16:23:16;13.20;60.50
16347;DHT22;8283;48.504;13.734;2023-02-12T16:26:01;13.10;60.40
16347;DHT22;8283;48.504;13.734;2023-02-12T16:28:47;13.10;60.40
16347;DHT22;8283;48.504;13.734;2023-02-12T16:31:32;13.00;60.30
16347;DHT22;8283;48.504;13.734;2023-02-12T16:40:23;12.80;61.10
16347;DHT22;8283;48.504;13.734;2023-02-12T16:43:35;12.60;60.60
16347;DHT22;8283;48.504;13.734;2023-02-12T16:46:20;12.50;61.30
16347;DHT22;8283;48.504;13.734;2023-02-12T16:49:16;12.40;61.00
16347;DHT22;8283;48.504;13.734;2023-02-12T16:52:34;12.30;60.90
16347;DHT22;8283;48.504;13.734;2023-02-12T16:55:20;12.20;61.40
16347;DHT22;8283;48.504;13.734;2023-02-12T16:58:07;12.10;60.60
16347;DHT22;8283;48.504;13.734;2023-02-12T17:00:53;12.00;60.80
16347;DHT22;8283;48.504;13.734;2023-02-12T17:03:39;12.00;60.90
16347;DHT22;8283;48.504;13.734;2023-02-12T17:06:26;11.90;60.90
16347;DHT22;8283;48.504;13.734;2023-02-12T17:09:11;11.90;61.00
16347;DHT22;8283;48.504;13.734;2023-02-12T17:11:56;11.80;60.90
16347;DHT22;8283;48.504;13.734;2023-02-12T17:14:40;11.80;60.90
16347;DHT22;8283;48.504;13.734;2023-02-12T17:17:24;11.70;60.90
16347;DHT22;8283;48.504;13.734;2023-02-12T17:20:09;11.70;61.00
16347;DHT22;8283;48.504;13.734;2023-02-12T17:22:55;11.70;61.00
16347;DHT22;8283;48.504;13.734;2023-02-12T17:25:42;12.10;61.40
16347;DHT22;8283;48.504;13.734;2023-02-12T17:28:27;11.60;61.00
16347;DHT22;8283;48.504;13.734;2023-02-12T17:31:11;11.60;61.00
16347;DHT22;8283;48.504;13.734;2023-02-12T17:33:56;13.00;61.90
16347;DHT22;8283;48.504;13.734;2023-02-12T17:36:41;12.00;61.40
16347;DHT22;8283;48.504;13.734;2023-02-12T17:39:25;11.50;61.10
16347;DHT22;8283;48.504;13.734;2023-02-12T17:42:10;11.50;61.10
16347;DHT22;8283;48.504;13.734;2023-02-12T17:44:55;11.50;61.30
16347;DHT22;8283;48.504;13.734;2023-02-12T17:47:39;11.40;61.30
16347;DHT22;8283;48.504;13.734;2023-02-12T17:50:24;11.40;61.30
16347;DHT22;8283;48.504;13.734;2023-02-12T17:53:09;11.30;61.20
16347;DHT22;8283;48.504;13.734;2023-02-12T17:55:54;11.20;61.30
16347;DHT22;8283;48.504;13.734;2023-02-12T17:58:39;11.20;61.20
16347;DHT22;8283;48.504;13.734;2023-02-12T18:01:26;11.10;61.40
16347;DHT22;8283;48.504;13.734;2023-02-12T18:04:11;11.10;61.60
16347;DHT22;8283;48.504;13.734;2023-02-12T18:06:56;11.10;61.80
16347;DHT22;8283;48.504;13.734;2023-02-12T18:09:40;11.00;62.20
16347;DHT22;8283;48.504;13.734;2023-02-12T18:12:25;10.90;61.70
16347;DHT22;8283;48.504;13.734;2023-02-12T18:15:10;10.90;61.70
16347;DHT22;8283;48.504;13.734;2023-02-12T18:17:54;12.00;62.60
16347;DHT22;8283;48.504;13.734;2023-02-12T18:20:39;10.90;62.60
16347;DHT22;8283;48.504;13.734;2023-02-12T18:23:24;10.90;61.90
16347;DHT22;8283;48.504;13.734;2023-02-12T18:26:11;10.30;61.50
16347;DHT22;8283;48.504;13.734;2023-02-12T18:28:57;10.90;62.00
16347;DHT22;8283;48.504;13.734;2023-02-12T18:31:41;10.80;62.00
16347;DHT22;8283;48.504;13.734;2023-02-12T18:34:26;10.80;62.00
16347;DHT22;8283;48.504;13.734;2023-02-12T18:37:12;10.80;62.00
16347;DHT22;8283;48.504;13.734;2023-02-12T18:39:56;10.80;62.10
16347;DHT22;8283;48.504;13.734;2023-02-12T18:42:41;10.80;62.00
16347;DHT22;8283;48.504;13.734;2023-02-12T18:45:26;10.80;62.10
16347;DHT22;8283;48.504;13.734;2023-02-12T18:48:10;11.10;62.40
16347;DHT22;8283;48.504;13.734;2023-02-12T18:50:59;11.00;62.30
16347;DHT22;8283;48.504;13.734;2023-02-12T18:53:44;10.70;62.40
16347;DHT22;8283;48.504;13.734;2023-02-12T18:56:32;10.70;62.00
16347;DHT22;8283;48.504;13.734;2023-02-12T18:59:18;11.70;62.80
16347;DHT22;8283;48.504;13.734;2023-02-12T19:02:04;10.70;62.00
16347;DHT22;8283;48.504;13.734;2023-02-12T19:04:49;10.70;62.10
16347;DHT22;8283;48.504;13.734;2023-02-12T19:07:34;10.70;62.10
16347;DHT22;8283;48.504;13.734;2023-02-12T19:10:18;10.70;62.10
16347;DHT22;8283;48.504;13.734;2023-02-12T19:13:03;10.70;62.10
16347;DHT22;8283;48.504;13.734;2023-02-12T19:15:47;10.60;62.10
16347;DHT22;8283;48.504;13.734;2023-02-12T19:18:31;10.60;62.10
16347;DHT22;8283;48.504;13.734;2023-02-12T19:21:16;10.60;62.10
16347;DHT22;8283;48.504;13.734;2023-02-12T19:24:02;10.60;62.10
16347;DHT22;8283;48.504;13.734;2023-02-12T19:26:50;10.60;62.30
16347;DHT22;8283;48.504;13.734;2023-02-12T19:29:36;10.60;62.40
16347;DHT22;8283;48.504;13.734;2023-02-12T19:32:21;10.50;62.20
16347;DHT22;8283;48.504;13.734;2023-02-12T19:35:06;10.50;62.30
16347;DHT22;8283;48.504;13.734;2023-02-12T19:37:50;10.50;62.30
16347;DHT22;8283;48.504;13.734;2023-02-12T19:40:34;10.50;62.30
16347;DHT22;8283;48.504;13.734;2023-02-12T19:43:19;10.40;62.30
16347;DHT22;8283;48.504;13.734;2023-02-12T19:46:09;10.40;62.30
16347;DHT22;8283;48.504;13.734;2023-02-12T19:49:00;10.40;62.40
16347;DHT22;8283;48.504;13.734;2023-02-12T19:51:45;10.40;62.90
16347;DHT22;8283;48.504;13.734;2023-02-12T19:54:30;10.40;62.40
16347;DHT22;8283;48.504;13.734;2023-02-12T19:57:14;10.40;62.40
16347;DHT22;8283;48.504;13.734;2023-02-12T19:59:59;10.30;62.50
16347;DHT22;8283;48.504;13.734;2023-02-12T20:02:44;10.30;62.40
16347;DHT22;8283;48.504;13.734;2023-02-12T20:05:28;10.30;62.50
16347;DHT22;8283;48.504;13.734;2023-02-12T20:08:13;10.30;62.50
16347;DHT22;8283;48.504;13.734;2023-02-12T20:10:57;10.80;62.90
16347;DHT22;8283;48.504;13.734;2023-02-12T20:13:42;10.20;62.50
16347;DHT22;8283;48.504;13.734;2023-02-12T20:16:28;10.20;62.60
16347;DHT22;8283;48.504;13.734;2023-02-12T20:19:22;10.90;63.10
16347;DHT22;8283;48.504;13.734;2023-02-12T20:22:07;10.20;63.70
16347;DHT22;8283;48.504;13.734;2023-02-12T20:24:52;10.10;62.70
16347;DHT22;8283;48.504;13.734;2023-02-12T20:27:37;10.10;62.70